sensor_id;sensor_type;location;lat;lon;timestamp;P1;durP1;ratioP1;P2;durP2;ratioP2
76259;SDS011;65076;52.362;6.588;2023-03-14T00:01:08;6.35;;;2.20;;
76259;SDS011;65076;52.362;6.588;2023-03-14T00:03:38;6.35;;;2.63;;
76259;SDS011;65076;52.362;6.588;2023-03-14T00:06:06;5.65;;;2.05;;
76259;SDS011;65076;52.362;6.588;2023-03-14T00:11:04;6.80;;;1.63;;
76259;SDS011;65076;52.362;6.588;2023-03-14T00:13:37;5.85;;;1.95;;
76259;SDS011;65076;52.362;6.588;2023-03-14T00:16:06;6.30;;;1.90;;
76259;SDS011;65076;52.362;6.588;2023-03-14T00:18:36;3.90;;;1.95;;
76259;SDS011;65076;52.362;6.588;2023-03-14T00:21:06;5.00;;;1.45;;
76259;SDS011;65076;52.362;6.588;2023-03-14T00:23:37;7.05;;;2.03;;
76259;SDS011;65076;52.362;6.588;2023-03-14T00:26:07;6.35;;;1.92;;
76259;SDS011;65076;52.362;6.588;2023-03-14T00:28:39;4.90;;;1.63;;
76259;SDS011;65076;52.362;6.588;2023-03-14T00:31:09;5.88;;;1.73;;
76259;SDS011;65076;52.362;6.588;2023-03-14T00:33:40;3.00;;;1.70;;
76259;SDS011;65076;52.362;6.588;2023-03-14T00:36:10;6.93;;;1.85;;
76259;SDS011;65076;52.362;6.588;2023-03-14T00:38:41;3.60;;;1.52;;
76259;SDS011;65076;52.362;6.588;2023-03-14T00:43:42;5.45;;;1.77;;
76259;SDS011;65076;52.362;6.588;2023-03-14T00:46:10;6.28;;;2.72;;
76259;SDS011;65076;52.362;6.588;2023-03-14T00:48:39;7.45;;;1.70;;
76259;SDS011;65076;52.362;6.588;2023-03-14T00:51:07;6.63;;;1.38;;
76259;SDS011;65076;52.362;6.588;2023-03-14T00:53:38;5.38;;;1.60;;
76259;SDS011;65076;52.362;6.588;2023-03-14T00:56:07;4.45;;;1.70;;
76259;SDS011;65076;52.362;6.588;2023-03-14T00:58:38;7.70;;;1.85;;
76259;SDS011;65076;52.362;6.588;2023-03-14T01:01:08;3.13;;;1.52;;
76259;SDS011;65076;52.362;6.588;2023-03-14T01:03:39;5.80;;;1.67;;
76259;SDS011;65076;52.362;6.588;2023-03-14T01:06:08;3.13;;;1.45;;
76259;SDS011;65076;52.362;6.588;2023-03-14T01:08:39;4.70;;;1.40;;
76259;SDS011;65076;52.362;6.588;2023-03-14T01:11:08;4.68;;;2.25;;
76259;SDS011;65076;52.362;6.588;2023-03-14T01:13:38;5.20;;;1.63;;
76259;SDS011;65076;52.362;6.588;2023-03-14T01:16:08;5.43;;;1.80;;
76259;SDS011;65076;52.362;6.588;2023-03-14T01:18:39;2.35;;;1.17;;
76259;SDS011;65076;52.362;6.588;2023-03-14T01:21:12;5.22;;;1.35;;
76259;SDS011;65076;52.362;6.588;2023-03-14T01:23:43;3.60;;;1.50;;
76259;SDS011;65076;52.362;6.588;2023-03-14T01:26:12;4.60;;;1.55;;
76259;SDS011;65076;52.362;6.588;2023-03-14T01:28:45;2.58;;;1.00;;
76259;SDS011;65076;52.362;6.588;2023-03-14T01:31:16;6.70;;;1.40;;
76259;SDS011;65076;52.362;6.588;2023-03-14T01:33:45;3.55;;;0.82;;
76259;SDS011;65076;52.362;6.588;2023-03-14T01:36:14;2.20;;;0.80;;
76259;SDS011;65076;52.362;6.588;2023-03-14T01:38:43;4.55;;;1.00;;
76259;SDS011;65076;52.362;6.588;2023-03-14T01:41:13;3.85;;;1.67;;
76259;SDS011;65076;52.362;6.588;2023-03-14T01:43:44;4.88;;;1.83;;
76259;SDS011;65076;52.362;6.588;2023-03-14T01:46:25;6.28;;;1.67;;
76259;SDS011;65076;52.362;6.588;2023-03-14T01:49:17;5.65;;;1.90;;
76259;SDS011;65076;52.362;6.588;2023-03-14T01:51:53;7.30;;;1.75;;
76259;SDS011;65076;52.362;6.588;2023-03-14T01:54:27;4.28;;;2.10;;
76259;SDS011;65076;52.362;6.588;2023-03-14T01:57:02;4.00;;;1.38;;
76259;SDS011;65076;52.362;6.588;2023-03-14T01:59:35;2.95;;;1.20;;
76259;SDS011;65076;52.362;6.588;2023-03-14T02:02:09;4.20;;;1.20;;
76259;SDS011;65076;52.362;6.588;2023-03-14T02:04:40;5.53;;;1.40;;
76259;SDS011;65076;52.362;6.588;2023-03-14T02:07:10;3.03;;;1.02;;
76259;SDS011;65076;52.362;6.588;2023-03-14T02:09:42;3.50;;;0.88;;
76259;SDS011;65076;52.362;6.588;2023-03-14T02:12:12;2.45;;;0.93;;
76259;SDS011;65076;52.362;6.588;2023-03-14T02:14:43;2.10;;;0.80;;
76259;SDS011;65076;52.362;6.588;2023-03-14T02:17:16;3.08;;;0.90;;
76259;SDS011;65076;52.362;6.588;2023-03-14T02:19:54;5.22;;;1.42;;
76259;SDS011;65076;52.362;6.588;2023-03-14T02:22:37;6.85;;;0.95;;
76259;SDS011;65076;52.362;6.588;2023-03-14T02:25:10;4.15;;;0.90;;
76259;SDS011;65076;52.362;6.588;2023-03-14T02:27:46;3.63;;;1.00;;
76259;SDS011;65076;52.362;6.588;2023-03-14T02:30:18;8.43;;;1.25;;
76259;SDS011;65076;52.362;6.588;2023-03-14T02:32:49;2.60;;;1.08;;
76259;SDS011;65076;52.362;6.588;2023-03-14T02:35:23;3.03;;;0.57;;
76259;SDS011;65076;52.362;6.588;2023-03-14T02:37:56;4.53;;;0.70;;
76259;SDS011;65076;52.362;6.588;2023-03-14T02:40:31;4.78;;;1.60;;
76259;SDS011;65076;52.362;6.588;2023-03-14T02:43:01;4.72;;;1.33;;
76259;SDS011;65076;52.362;6.588;2023-03-14T02:45:34;7.22;;;1.20;;
76259;SDS011;65076;52.362;6.588;2023-03-14T02:48:09;4.43;;;1.25;;
76259;SDS011;65076;52.362;6.588;2023-03-14T02:50:43;4.97;;;1.48;;
76259;SDS011;65076;52.362;6.588;2023-03-14T02:53:15;4.70;;;1.85;;
76259;SDS011;65076;52.362;6.588;2023-03-14T02:55:48;5.18;;;1.50;;
76259;SDS011;65076;52.362;6.588;2023-03-14T02:58:17;5.03;;;1.67;;
76259;SDS011;65076;52.362;6.588;2023-03-14T03:00:46;5.88;;;1.60;;
76259;SDS011;65076;52.362;6.588;2023-03-14T03:03:15;7.10;;;1.63;;
76259;SDS011;65076;52.362;6.588;2023-03-14T03:05:47;4.10;;;1.85;;
76259;SDS011;65076;52.362;6.588;2023-03-14T03:08:16;3.97;;;2.03;;
76259;SDS011;65076;52.362;6.588;2023-03-14T03:10:44;5.03;;;2.00;;
76259;SDS011;65076;52.362;6.588;2023-03-14T03:13:13;4.25;;;1.05;;
76259;SDS011;65076;52.362;6.588;2023-03-14T03:15:43;3.00;;;1.30;;
76259;SDS011;65076;52.362;6.588;2023-03-14T03:18:11;3.53;;;1.48;;
76259;SDS011;65076;52.362;6.588;2023-03-14T03:20:39;2.85;;;1.05;;
76259;SDS011;65076;52.362;6.588;2023-03-14T03:23:07;2.53;;;1.08;;
76259;SDS011;65076;52.362;6.588;2023-03-14T03:25:35;4.03;;;1.33;;
76259;SDS011;65076;52.362;6.588;2023-03-14T03:28:03;1.50;;;0.98;;
76259;SDS011;65076;52.362;6.588;2023-03-14T03:30:36;4.55;;;1.30;;
76259;SDS011;65076;52.362;6.588;2023-03-14T03:33:07;4.28;;;1.35;;
76259;SDS011;65076;52.362;6.588;2023-03-14T03:35:41;4.57;;;1.38;;
76259;SDS011;65076;52.362;6.588;2023-03-14T03:38:11;3.25;;;1.60;;
76259;SDS011;65076;52.362;6.588;2023-03-14T03:40:40;3.53;;;1.48;;
76259;SDS011;65076;52.362;6.588;2023-03-14T03:43:08;3.55;;;1.23;;
76259;SDS011;65076;52.362;6.588;2023-03-14T03:45:36;5.00;;;1.52;;
76259;SDS011;65076;52.362;6.588;2023-03-14T03:48:04;3.72;;;1.23;;
76259;SDS011;65076;52.362;6.588;2023-03-14T03:50:34;5.30;;;1.05;;
76259;SDS011;65076;52.362;6.588;2023-03-14T03:53:01;4.20;;;0.88;;
76259;SDS011;65076;52.362;6.588;2023-03-14T03:55:30;4.45;;;1.30;;
76259;SDS011;65076;52.362;6.588;2023-03-14T03:57:58;5.97;;;1.55;;
76259;SDS011;65076;52.362;6.588;2023-03-14T04:00:25;2.80;;;1.02;;
76259;SDS011;65076;52.362;6.588;2023-03-14T04:02:53;9.95;;;1.50;;
76259;SDS011;65076;52.362;6.588;2023-03-14T04:05:23;4.65;;;1.20;;
76259;SDS011;65076;52.362;6.588;2023-03-14T04:07:50;7.30;;;1.80;;
76259;SDS011;65076;52.362;6.588;2023-03-14T04:10:18;2.67;;;1.20;;
76259;SDS011;65076;52.362;6.588;2023-03-14T04:12:46;5.00;;;1.13;;
76259;SDS011;65076;52.362;6.588;2023-03-14T04:15:14;6.45;;;1.15;;
76259;SDS011;65076;52.362;6.588;2023-03-14T04:17:42;7.15;;;1.90;;
76259;SDS011;65076;52.362;6.588;2023-03-14T04:20:10;4.28;;;1.30;;
76259;SDS011;65076;52.362;6.588;2023-03-14T04:22:40;4.10;;;1.55;;
76259;SDS011;65076;52.362;6.588;2023-03-14T04:25:09;3.80;;;1.33;;
76259;SDS011;65076;52.362;6.588;2023-03-14T04:27:37;7.78;;;1.15;;
76259;SDS011;65076;52.362;6.588;2023-03-14T04:30:06;3.88;;;1.40;;
76259;SDS011;65076;52.362;6.588;2023-03-14T04:32:35;2.90;;;1.35;;
76259;SDS011;65076;52.362;6.588;2023-03-14T04:35:07;6.85;;;1.30;;
76259;SDS011;65076;52.362;6.588;2023-03-14T04:37:35;3.65;;;0.98;;
76259;SDS011;65076;52.362;6.588;2023-03-14T04:40:05;7.13;;;1.73;;
76259;SDS011;65076;52.362;6.588;2023-03-14T04:42:35;7.15;;;1.45;;
76259;SDS011;65076;52.362;6.588;2023-03-14T04:45:03;3.80;;;1.05;;
76259;SDS011;65076;52.362;6.588;2023-03-14T04:47:33;6.03;;;1.63;;
76259;SDS011;65076;52.362;6.588;2023-03-14T04:50:01;5.40;;;1.60;;
76259;SDS011;65076;52.362;6.588;2023-03-14T04:52:29;4.13;;;1.33;;
76259;SDS011;65076;52.362;6.588;2023-03-14T04:54:56;4.97;;;0.98;;
76259;SDS011;65076;52.362;6.588;2023-03-14T04:57:26;5.20;;;1.05;;
76259;SDS011;65076;52.362;6.588;2023-03-14T04:59:54;3.10;;;1.10;;
76259;SDS011;65076;52.362;6.588;2023-03-14T05:02:22;3.90;;;1.20;;
76259;SDS011;65076;52.362;6.588;2023-03-14T05:04:50;2.80;;;1.35;;
76259;SDS011;65076;52.362;6.588;2023-03-14T05:07:18;6.32;;;1.30;;
76259;SDS011;65076;52.362;6.588;2023-03-14T05:09:45;8.52;;;2.10;;
76259;SDS011;65076;52.362;6.588;2023-03-14T05:12:13;5.30;;;1.27;;
76259;SDS011;65076;52.362;6.588;2023-03-14T05:14:43;5.30;;;1.00;;
76259;SDS011;65076;52.362;6.588;2023-03-14T05:17:10;7.00;;;1.27;;
76259;SDS011;65076;52.362;6.588;2023-03-14T05:19:47;7.80;;;1.67;;
76259;SDS011;65076;52.362;6.588;2023-03-14T05:22:14;1.27;;;0.77;;
76259;SDS011;65076;52.362;6.588;2023-03-14T05:24:42;5.53;;;1.20;;
76259;SDS011;65076;52.362;6.588;2023-03-14T05:27:10;3.47;;;1.20;;
76259;SDS011;65076;52.362;6.588;2023-03-14T05:29:38;6.75;;;1.08;;
76259;SDS011;65076;52.362;6.588;2023-03-14T05:32:07;4.32;;;1.33;;
76259;SDS011;65076;52.362;6.588;2023-03-14T05:34:35;5.28;;;1.52;;
76259;SDS011;65076;52.362;6.588;2023-03-14T05:37:03;6.95;;;1.55;;
76259;SDS011;65076;52.362;6.588;2023-03-14T05:39:31;8.75;;;3.03;;
76259;SDS011;65076;52.362;6.588;2023-03-14T05:41:59;5.07;;;1.40;;
76259;SDS011;65076;52.362;6.588;2023-03-14T05:44:27;4.03;;;1.10;;
76259;SDS011;65076;52.362;6.588;2023-03-14T05:46:55;9.13;;;1.90;;
76259;SDS011;65076;52.362;6.588;2023-03-14T05:49:24;4.15;;;2.70;;
76259;SDS011;65076;52.362;6.588;2023-03-14T05:51:52;5.25;;;1.30;;
76259;SDS011;65076;52.362;6.588;2023-03-14T05:54:20;6.38;;;1.60;;
76259;SDS011;65076;52.362;6.588;2023-03-14T05:56:48;4.60;;;1.60;;
76259;SDS011;65076;52.362;6.588;2023-03-14T05:59:16;4.07;;;0.98;;
76259;SDS011;65076;52.362;6.588;2023-03-14T06:01:44;8.13;;;1.48;;
76259;SDS011;65076;52.362;6.588;2023-03-14T06:04:12;5.97;;;1.10;;
76259;SDS011;65076;52.362;6.588;2023-03-14T06:06:41;5.22;;;2.60;;
76259;SDS011;65076;52.362;6.588;2023-03-14T06:09:10;5.55;;;1.98;;
76259;SDS011;65076;52.362;6.588;2023-03-14T06:11:37;3.47;;;1.35;;
76259;SDS011;65076;52.362;6.588;2023-03-14T06:14:05;5.05;;;1.30;;
76259;SDS011;65076;52.362;6.588;2023-03-14T06:16:33;6.38;;;3.00;;
76259;SDS011;65076;52.362;6.588;2023-03-14T06:19:01;3.85;;;1.52;;
76259;SDS011;65076;52.362;6.588;2023-03-14T06:21:29;5.35;;;1.00;;
76259;SDS011;65076;52.362;6.588;2023-03-14T06:23:59;5.82;;;1.77;;
76259;SDS011;65076;52.362;6.588;2023-03-14T06:26:27;5.28;;;1.25;;
76259;SDS011;65076;52.362;6.588;2023-03-14T06:28:54;7.03;;;1.40;;
76259;SDS011;65076;52.362;6.588;2023-03-14T06:31:22;6.82;;;1.17;;
76259;SDS011;65076;52.362;6.588;2023-03-14T06:33:50;5.03;;;1.02;;
76259;SDS011;65076;52.362;6.588;2023-03-14T06:36:18;6.47;;;2.03;;
76259;SDS011;65076;52.362;6.588;2023-03-14T06:38:46;4.63;;;1.58;;
76259;SDS011;65076;52.362;6.588;2023-03-14T06:41:15;4.25;;;1.30;;
76259;SDS011;65076;52.362;6.588;2023-03-14T06:43:43;2.70;;;1.15;;
76259;SDS011;65076;52.362;6.588;2023-03-14T06:46:11;3.95;;;0.77;;
76259;SDS011;65076;52.362;6.588;2023-03-14T06:48:39;5.22;;;1.13;;
76259;SDS011;65076;52.362;6.588;2023-03-14T06:51:07;9.02;;;1.38;;
76259;SDS011;65076;52.362;6.588;2023-03-14T06:53:35;8.30;;;1.25;;
76259;SDS011;65076;52.362;6.588;2023-03-14T06:56:03;4.05;;;1.05;;
76259;SDS011;65076;52.362;6.588;2023-03-14T06:58:34;2.50;;;0.95;;
76259;SDS011;65076;52.362;6.588;2023-03-14T07:01:02;3.65;;;1.23;;
76259;SDS011;65076;52.362;6.588;2023-03-14T07:03:30;4.07;;;1.58;;
76259;SDS011;65076;52.362;6.588;2023-03-14T07:05:58;3.55;;;1.58;;
76259;SDS011;65076;52.362;6.588;2023-03-14T07:08:26;7.10;;;1.58;;
76259;SDS011;65076;52.362;6.588;2023-03-14T07:10:55;3.92;;;1.42;;
76259;SDS011;65076;52.362;6.588;2023-03-14T07:13:23;1.92;;;1.00;;
76259;SDS011;65076;52.362;6.588;2023-03-14T07:15:53;8.95;;;1.48;;
76259;SDS011;65076;52.362;6.588;2023-03-14T07:18:21;6.47;;;1.20;;
76259;SDS011;65076;52.362;6.588;2023-03-14T07:20:49;5.82;;;1.40;;
76259;SDS011;65076;52.362;6.588;2023-03-14T07:23:17;3.00;;;1.13;;
76259;SDS011;65076;52.362;6.588;2023-03-14T07:25:45;2.83;;;1.00;;
76259;SDS011;65076;52.362;6.588;2023-03-14T07:28:13;4.13;;;1.20;;
76259;SDS011;65076;52.362;6.588;2023-03-14T07:30:41;5.43;;;1.23;;
76259;SDS011;65076;52.362;6.588;2023-03-14T07:33:10;3.38;;;2.05;;
76259;SDS011;65076;52.362;6.588;2023-03-14T07:35:38;3.25;;;1.15;;
76259;SDS011;65076;52.362;6.588;2023-03-14T07:38:06;6.20;;;1.58;;
76259;SDS011;65076;52.362;6.588;2023-03-14T07:40:34;1.98;;;1.13;;
76259;SDS011;65076;52.362;6.588;2023-03-14T07:43:02;5.40;;;1.60;;
76259;SDS011;65076;52.362;6.588;2023-03-14T07:45:30;2.45;;;1.30;;
76259;SDS011;65076;52.362;6.588;2023-03-14T07:50:36;3.15;;;1.33;;
76259;SDS011;65076;52.362;6.588;2023-03-14T07:53:04;5.68;;;1.30;;
76259;SDS011;65076;52.362;6.588;2023-03-14T07:55:32;0.80;;;0.35;;
76259;SDS011;65076;52.362;6.588;2023-03-14T07:58:00;0.52;;;0.30;;
76259;SDS011;65076;52.362;6.588;2023-03-14T08:00:28;0.30;;;0.20;;
76259;SDS011;65076;52.362;6.588;2023-03-14T08:02:56;4.03;;;0.52;;
76259;SDS011;65076;52.362;6.588;2023-03-14T08:05:24;1.30;;;0.32;;
76259;SDS011;65076;52.362;6.588;2023-03-14T08:07:53;1.77;;;0.60;;
76259;SDS011;65076;52.362;6.588;2023-03-14T08:10:21;1.00;;;0.70;;
76259;SDS011;65076;52.362;6.588;2023-03-14T08:12:50;0.88;;;0.50;;
76259;SDS011;65076;52.362;6.588;2023-03-14T08:15:21;4.47;;;0.60;;
76259;SDS011;65076;52.362;6.588;2023-03-14T08:17:49;1.80;;;0.70;;
76259;SDS011;65076;52.362;6.588;2023-03-14T08:20:20;1.98;;;0.50;;
76259;SDS011;65076;52.362;6.588;2023-03-14T08:25:19;1.50;;;0.38;;
76259;SDS011;65076;52.362;6.588;2023-03-14T08:27:47;2.42;;;0.70;;
76259;SDS011;65076;52.362;6.588;2023-03-14T08:30:15;2.95;;;0.70;;
76259;SDS011;65076;52.362;6.588;2023-03-14T08:32:45;2.45;;;0.70;;
76259;SDS011;65076;52.362;6.588;2023-03-14T08:35:13;1.17;;;0.57;;
76259;SDS011;65076;52.362;6.588;2023-03-14T08:37:42;1.67;;;0.57;;
76259;SDS011;65076;52.362;6.588;2023-03-14T08:40:10;0.50;;;0.40;;
76259;SDS011;65076;52.362;6.588;2023-03-14T08:42:40;1.50;;;0.47;;
76259;SDS011;65076;52.362;6.588;2023-03-14T08:45:11;2.90;;;0.50;;
76259;SDS011;65076;52.362;6.588;2023-03-14T08:47:42;2.03;;;0.70;;
76259;SDS011;65076;52.362;6.588;2023-03-14T08:50:12;2.65;;;0.77;;
76259;SDS011;65076;52.362;6.588;2023-03-14T08:52:42;1.17;;;0.50;;
76259;SDS011;65076;52.362;6.588;2023-03-14T08:55:10;1.30;;;0.20;;
76259;SDS011;65076;52.362;6.588;2023-03-14T08:57:38;3.30;;;0.50;;
76259;SDS011;65076;52.362;6.588;2023-03-14T09:00:08;1.75;;;0.20;;
76259;SDS011;65076;52.362;6.588;2023-03-14T09:02:38;2.28;;;0.17;;
76259;SDS011;65076;52.362;6.588;2023-03-14T09:05:07;2.60;;;0.30;;
76259;SDS011;65076;52.362;6.588;2023-03-14T09:07:36;2.33;;;0.38;;
76259;SDS011;65076;52.362;6.588;2023-03-14T09:10:06;2.00;;;0.30;;
76259;SDS011;65076;52.362;6.588;2023-03-14T09:12:35;3.15;;;0.32;;
76259;SDS011;65076;52.362;6.588;2023-03-14T09:15:06;0.32;;;0.15;;
76259;SDS011;65076;52.362;6.588;2023-03-14T09:17:35;0.70;;;0.20;;
76259;SDS011;65076;52.362;6.588;2023-03-14T09:20:04;1.73;;;0.40;;
76259;SDS011;65076;52.362;6.588;2023-03-14T09:22:35;1.02;;;0.20;;
76259;SDS011;65076;52.362;6.588;2023-03-14T09:25:03;0.90;;;0.30;;
76259;SDS011;65076;52.362;6.588;2023-03-14T09:27:33;0.10;;;0.10;;
76259;SDS011;65076;52.362;6.588;2023-03-14T09:30:01;1.05;;;0.25;;
76259;SDS011;65076;52.362;6.588;2023-03-14T09:32:31;0.70;;;0.40;;
76259;SDS011;65076;52.362;6.588;2023-03-14T09:34:59;1.38;;;0.20;;
76259;SDS011;65076;52.362;6.588;2023-03-14T09:37:27;0.50;;;0.10;;
76259;SDS011;65076;52.362;6.588;2023-03-14T09:39:55;1.98;;;0.20;;
76259;SDS011;65076;52.362;6.588;2023-03-14T09:42:25;2.08;;;0.30;;
76259;SDS011;65076;52.362;6.588;2023-03-14T09:44:56;2.58;;;0.43;;
76259;SDS011;65076;52.362;6.588;2023-03-14T09:47:28;2.08;;;0.20;;
76259;SDS011;65076;52.362;6.588;2023-03-14T09:50:01;2.20;;;0.20;;
76259;SDS011;65076;52.362;6.588;2023-03-14T09:52:33;2.75;;;0.38;;
76259;SDS011;65076;52.362;6.588;2023-03-14T09:55:09;0.32;;;0.28;;
76259;SDS011;65076;52.362;6.588;2023-03-14T09:57:42;1.90;;;0.40;;
76259;SDS011;65076;52.362;6.588;2023-03-14T10:00:15;3.85;;;0.55;;
76259;SDS011;65076;52.362;6.588;2023-03-14T10:02:49;3.03;;;0.43;;
76259;SDS011;65076;52.362;6.588;2023-03-14T10:05:23;2.92;;;0.30;;
76259;SDS011;65076;52.362;6.588;2023-03-14T10:07:54;1.23;;;0.40;;
76259;SDS011;65076;52.362;6.588;2023-03-14T10:10:23;4.10;;;0.70;;
76259;SDS011;65076;52.362;6.588;2023-03-14T10:12:54;2.42;;;1.05;;
76259;SDS011;65076;52.362;6.588;2023-03-14T10:15:26;2.50;;;0.45;;
76259;SDS011;65076;52.362;6.588;2023-03-14T10:18:01;2.03;;;0.63;;
76259;SDS011;65076;52.362;6.588;2023-03-14T10:20:32;3.75;;;0.80;;
76259;SDS011;65076;52.362;6.588;2023-03-14T10:23:02;2.33;;;0.32;;
76259;SDS011;65076;52.362;6.588;2023-03-14T10:25:46;4.90;;;1.17;;
76259;SDS011;65076;52.362;6.588;2023-03-14T10:28:31;8.55;;;0.80;;
76259;SDS011;65076;52.362;6.588;2023-03-14T10:31:01;4.25;;;0.75;;
76259;SDS011;65076;52.362;6.588;2023-03-14T10:33:31;3.30;;;1.10;;
76259;SDS011;65076;52.362;6.588;2023-03-14T10:36:01;3.42;;;1.15;;
76259;SDS011;65076;52.362;6.588;2023-03-14T10:38:33;5.30;;;1.02;;
76259;SDS011;65076;52.362;6.588;2023-03-14T10:41:13;5.63;;;0.80;;
76259;SDS011;65076;52.362;6.588;2023-03-14T10:43:46;5.03;;;0.80;;
76259;SDS011;65076;52.362;6.588;2023-03-14T10:46:19;6.30;;;1.23;;
76259;SDS011;65076;52.362;6.588;2023-03-14T10:48:49;3.03;;;1.25;;
76259;SDS011;65076;52.362;6.588;2023-03-14T10:51:24;7.85;;;1.15;;
76259;SDS011;65076;52.362;6.588;2023-03-14T10:53:58;8.30;;;1.35;;
76259;SDS011;65076;52.362;6.588;2023-03-14T10:56:33;10.43;;;1.27;;
76259;SDS011;65076;52.362;6.588;2023-03-14T10:59:03;7.30;;;1.55;;
76259;SDS011;65076;52.362;6.588;2023-03-14T11:01:39;8.60;;;1.45;;
76259;SDS011;65076;52.362;6.588;2023-03-14T11:04:21;10.07;;;1.77;;
76259;SDS011;65076;52.362;6.588;2023-03-14T11:07:11;7.22;;;1.30;;
76259;SDS011;65076;52.362;6.588;2023-03-14T11:09:52;11.98;;;1.40;;
76259;SDS011;65076;52.362;6.588;2023-03-14T11:12:30;10.35;;;1.70;;
76259;SDS011;65076;52.362;6.588;2023-03-14T11:15:14;10.55;;;1.38;;
76259;SDS011;65076;52.362;6.588;2023-03-14T11:17:53;11.35;;;1.23;;
76259;SDS011;65076;52.362;6.588;2023-03-14T11:20:51;5.95;;;1.75;;
76259;SDS011;65076;52.362;6.588;2023-03-14T11:23:27;12.82;;;1.77;;
76259;SDS011;65076;52.362;6.588;2023-03-14T11:26:11;10.60;;;2.08;;
76259;SDS011;65076;52.362;6.588;2023-03-14T11:28:56;6.97;;;1.25;;
76259;SDS011;65076;52.362;6.588;2023-03-14T11:31:30;5.00;;;0.98;;
76259;SDS011;65076;52.362;6.588;2023-03-14T11:34:05;13.32;;;2.38;;
76259;SDS011;65076;52.362;6.588;2023-03-14T11:36:46;10.57;;;1.38;;
76259;SDS011;65076;52.362;6.588;2023-03-14T11:39:23;8.48;;;1.48;;
76259;SDS011;65076;52.362;6.588;2023-03-14T11:42:01;14.60;;;2.20;;
76259;SDS011;65076;52.362;6.588;2023-03-14T11:44:32;10.15;;;1.95;;
76259;SDS011;65076;52.362;6.588;2023-03-14T11:47:06;11.13;;;2.30;;
76259;SDS011;65076;52.362;6.588;2023-03-14T11:49:43;8.48;;;1.52;;
76259;SDS011;65076;52.362;6.588;2023-03-14T11:52:20;9.82;;;1.90;;
76259;SDS011;65076;52.362;6.588;2023-03-14T11:54:56;9.13;;;1.60;;
76259;SDS011;65076;52.362;6.588;2023-03-14T11:57:32;13.75;;;2.63;;
76259;SDS011;65076;52.362;6.588;2023-03-14T12:00:02;6.68;;;1.80;;
76259;SDS011;65076;52.362;6.588;2023-03-14T12:02:45;10.75;;;1.30;;
76259;SDS011;65076;52.362;6.588;2023-03-14T12:08:32;7.72;;;1.48;;
76259;SDS011;65076;52.362;6.588;2023-03-14T12:11:13;7.20;;;1.33;;
76259;SDS011;65076;52.362;6.588;2023-03-14T12:13:49;8.63;;;1.83;;
76259;SDS011;65076;52.362;6.588;2023-03-14T12:19:13;6.28;;;1.27;;
76259;SDS011;65076;52.362;6.588;2023-03-14T12:24:31;20.33;;;2.50;;
76259;SDS011;65076;52.362;6.588;2023-03-14T12:27:04;5.57;;;1.10;;
76259;SDS011;65076;52.362;6.588;2023-03-14T12:29:46;7.90;;;1.35;;
76259;SDS011;65076;52.362;6.588;2023-03-14T12:32:29;4.80;;;1.08;;
76259;SDS011;65076;52.362;6.588;2023-03-14T12:34:58;4.68;;;0.90;;
76259;SDS011;65076;52.362;6.588;2023-03-14T12:38:02;6.78;;;1.05;;
76259;SDS011;65076;52.362;6.588;2023-03-14T12:40:38;3.17;;;0.88;;
76259;SDS011;65076;52.362;6.588;2023-03-14T12:43:27;5.40;;;0.93;;
76259;SDS011;65076;52.362;6.588;2023-03-14T12:46:07;5.45;;;1.00;;
76259;SDS011;65076;52.362;6.588;2023-03-14T12:48:47;5.95;;;1.20;;
76259;SDS011;65076;52.362;6.588;2023-03-14T12:51:25;8.73;;;1.45;;
76259;SDS011;65076;52.362;6.588;2023-03-14T12:57:06;3.85;;;1.05;;
76259;SDS011;65076;52.362;6.588;2023-03-14T12:59:55;4.60;;;1.05;;
76259;SDS011;65076;52.362;6.588;2023-03-14T13:02:26;3.22;;;1.23;;
76259;SDS011;65076;52.362;6.588;2023-03-14T13:05:01;4.63;;;0.95;;
76259;SDS011;65076;52.362;6.588;2023-03-14T13:10:38;3.20;;;0.70;;
76259;SDS011;65076;52.362;6.588;2023-03-14T13:13:19;4.20;;;0.70;;
76259;SDS011;65076;52.362;6.588;2023-03-14T13:15:53;5.43;;;0.73;;
76259;SDS011;65076;52.362;6.588;2023-03-14T13:18:27;4.72;;;0.50;;
76259;SDS011;65076;52.362;6.588;2023-03-14T13:21:02;7.32;;;1.80;;
76259;SDS011;65076;52.362;6.588;2023-03-14T13:23:38;4.00;;;1.67;;
76259;SDS011;65076;52.362;6.588;2023-03-14T13:26:09;3.42;;;0.75;;
76259;SDS011;65076;52.362;6.588;2023-03-14T13:28:43;2.63;;;0.50;;
76259;SDS011;65076;52.362;6.588;2023-03-14T13:31:17;4.70;;;1.10;;
76259;SDS011;65076;52.362;6.588;2023-03-14T13:33:57;4.00;;;0.85;;
76259;SDS011;65076;52.362;6.588;2023-03-14T13:38:56;3.78;;;0.85;;
76259;SDS011;65076;52.362;6.588;2023-03-14T13:43:58;5.85;;;1.10;;
76259;SDS011;65076;52.362;6.588;2023-03-14T13:46:33;5.53;;;1.13;;
76259;SDS011;65076;52.362;6.588;2023-03-14T13:49:03;5.07;;;1.10;;
76259;SDS011;65076;52.362;6.588;2023-03-14T13:51:37;4.20;;;1.45;;
76259;SDS011;65076;52.362;6.588;2023-03-14T13:54:12;5.93;;;1.27;;
76259;SDS011;65076;52.362;6.588;2023-03-14T13:56:42;5.65;;;0.90;;
76259;SDS011;65076;52.362;6.588;2023-03-14T13:59:22;5.72;;;1.20;;
76259;SDS011;65076;52.362;6.588;2023-03-14T14:01:51;2.75;;;0.68;;
76259;SDS011;65076;52.362;6.588;2023-03-14T14:04:22;4.57;;;1.10;;
76259;SDS011;65076;52.362;6.588;2023-03-14T14:06:54;4.63;;;1.08;;
76259;SDS011;65076;52.362;6.588;2023-03-14T14:09:25;4.35;;;1.02;;
76259;SDS011;65076;52.362;6.588;2023-03-14T14:11:58;4.25;;;1.00;;
76259;SDS011;65076;52.362;6.588;2023-03-14T14:14:43;5.05;;;0.88;;
76259;SDS011;65076;52.362;6.588;2023-03-14T14:17:21;4.95;;;1.00;;
76259;SDS011;65076;52.362;6.588;2023-03-14T14:19:57;3.97;;;1.20;;
76259;SDS011;65076;52.362;6.588;2023-03-14T14:22:26;7.28;;;1.20;;
76259;SDS011;65076;52.362;6.588;2023-03-14T14:24:55;4.47;;;0.77;;
76259;SDS011;65076;52.362;6.588;2023-03-14T14:27:24;4.80;;;0.70;;
76259;SDS011;65076;52.362;6.588;2023-03-14T14:30:04;3.42;;;0.73;;
76259;SDS011;65076;52.362;6.588;2023-03-14T14:32:52;3.08;;;0.63;;
76259;SDS011;65076;52.362;6.588;2023-03-14T14:35:24;4.78;;;0.90;;
76259;SDS011;65076;52.362;6.588;2023-03-14T14:37:57;4.18;;;0.90;;
76259;SDS011;65076;52.362;6.588;2023-03-14T14:40:27;3.75;;;1.15;;
76259;SDS011;65076;52.362;6.588;2023-03-14T14:43:01;1.80;;;0.65;;
76259;SDS011;65076;52.362;6.588;2023-03-14T14:45:33;3.95;;;0.77;;
76259;SDS011;65076;52.362;6.588;2023-03-14T14:48:04;4.88;;;0.77;;
76259;SDS011;65076;52.362;6.588;2023-03-14T14:50:37;2.83;;;0.60;;
76259;SDS011;65076;52.362;6.588;2023-03-14T14:53:21;4.80;;;0.88;;
76259;SDS011;65076;52.362;6.588;2023-03-14T14:55:52;5.35;;;0.95;;
76259;SDS011;65076;52.362;6.588;2023-03-14T14:58:24;3.00;;;0.70;;
76259;SDS011;65076;52.362;6.588;2023-03-14T15:01:04;4.10;;;0.80;;
76259;SDS011;65076;52.362;6.588;2023-03-14T15:03:39;6.15;;;0.90;;
76259;SDS011;65076;52.362;6.588;2023-03-14T15:06:11;4.80;;;1.20;;
76259;SDS011;65076;52.362;6.588;2023-03-14T15:08:42;5.95;;;1.50;;
76259;SDS011;65076;52.362;6.588;2023-03-14T15:11:12;2.85;;;0.88;;
76259;SDS011;65076;52.362;6.588;2023-03-14T15:13:45;11.23;;;1.17;;
76259;SDS011;65076;52.362;6.588;2023-03-14T15:16:15;3.83;;;0.70;;
76259;SDS011;65076;52.362;6.588;2023-03-14T15:18:47;4.35;;;1.00;;
76259;SDS011;65076;52.362;6.588;2023-03-14T15:21:22;2.97;;;0.77;;
76259;SDS011;65076;52.362;6.588;2023-03-14T15:23:51;4.35;;;1.23;;
76259;SDS011;65076;52.362;6.588;2023-03-14T15:26:20;5.55;;;0.88;;
76259;SDS011;65076;52.362;6.588;2023-03-14T15:28:51;5.43;;;0.80;;
76259;SDS011;65076;52.362;6.588;2023-03-14T15:31:23;6.28;;;1.45;;
76259;SDS011;65076;52.362;6.588;2023-03-14T15:33:51;3.75;;;1.10;;
76259;SDS011;65076;52.362;6.588;2023-03-14T15:36:21;3.90;;;0.60;;
76259;SDS011;65076;52.362;6.588;2023-03-14T15:38:52;5.30;;;0.82;;
76259;SDS011;65076;52.362;6.588;2023-03-14T15:41:22;5.28;;;0.80;;
76259;SDS011;65076;52.362;6.588;2023-03-14T15:43:50;5.60;;;1.10;;